Time,TemperatureF,DewpointF,PressureIn,WindDirection,WindDirectionDegrees,WindSpeedMPH,WindSpeedGustMPH,Humidity,HourlyPrecipIn,Conditions,Clouds,dailyrainin,SoftwareType,DateUTC
2014-01-29 00:14:00,8.7,-6.0,30.30,SSW,201,4.0,8.0,52,0.00,,,0.00,weatherlink.com 1.10,2014-01-29 06:14:00,
2014-01-29 00:29:00,8.3,-6.0,30.31,SSW,202,7.0,7.0,53,0.00,,,0.00,weatherlink.com 1.10,2014-01-29 06:29:00,
2014-01-29 00:44:00,8.1,-6.0,30.31,SW,221,5.0,7.0,54,0.00,,,0.00,weatherlink.com 1.10,2014-01-29 06:44:00,
2014-01-29 00:59:00,8.4,-6.0,30.31,SSW,208,6.0,9.0,53,0.00,,,0.00,weatherlink.com 1.10,2014-01-29 06:59:00,
2014-01-29 01:15:00,8.6,-5.0,30.30,SSW,205,5.0,8.0,53,0.00,,,0.00,weatherlink.com 1.10,2014-01-29 07:15:00,
2014-01-29 01:30:00,8.6,-5.0,30.30,SW,216,4.0,9.0,53,0.00,,,0.00,weatherlink.com 1.10,2014-01-29 07:30:00,
2014-01-29 01:45:00,8.7,-5.0,30.29,SSW,192,6.0,10.0,53,0.00,,,0.00,weatherlink.com 1.10,2014-01-29 07:45:00,
2014-01-29 02:00:00,8.2,-5.0,30.28,SSW,200,6.0,7.0,54,0.00,,,0.00,weatherlink.com 1.10,2014-01-29 08:00:00,
2014-01-29 02:15:00,8.2,-5.0,30.28,SSW,202,3.0,7.0,54,0.00,,,0.00,weatherlink.com 1.10,2014-01-29 08:15:00,
2014-01-29 02:30:00,8.4,-5.0,30.27,SSW,213,3.0,8.0,54,0.00,,,0.00,weatherlink.com 1.10,2014-01-29 08:30:00,
2014-01-29 02:45:00,8.9,-5.0,30.27,SSW,213,5.0,9.0,54,0.00,,,0.00,weatherlink.com 1.10,2014-01-29 08:45:00,
2014-01-29 03:00:00,9.2,-5.0,30.26,South,185,7.0,10.0,53,0.00,,,0.00,weatherlink.com 1.10,2014-01-29 09:00:00,
2014-01-29 03:15:00,9.4,-4.0,30.26,SW,215,8.0,11.0,54,0.00,,,0.00,weatherlink.com 1.10,2014-01-29 09:15:00,
2014-01-29 03:30:00,9.2,-4.0,30.25,SW,219,7.0,10.0,55,0.00,,,0.00,weatherlink.com 1.10,2014-01-29 09:30:00,
2014-01-29 03:45:00,8.9,-4.0,30.24,SSW,200,7.0,10.0,56,0.00,,,0.00,weatherlink.com 1.10,2014-01-29 09:45:00,
2014-01-29 04:00:00,8.6,-4.0,30.23,SSW,202,3.0,10.0,57,0.00,,,0.00,weatherlink.com 1.10,2014-01-29 10:00:00,
2014-01-29 04:15:00,8.4,-4.0,30.22,SSW,209,4.0,11.0,58,0.00,,,0.00,weatherlink.com 1.10,2014-01-29 10:15:00,
2014-01-29 04:31:00,8.1,-3.0,30.22,SSW,209,8.0,9.0,60,0.00,,,0.00,weatherlink.com 1.10,2014-01-29 10:31:00,
2014-01-29 04:46:00,8.1,-3.0,30.21,South,179,6.0,10.0,61,0.00,,,0.00,weatherlink.com 1.10,2014-01-29 10:46:00,
2014-01-29 05:01:00,7.8,-3.0,30.21,SSW,212,7.0,10.0,61,0.00,,,0.00,weatherlink.com 1.10,2014-01-29 11:01:00,
2014-01-29 05:16:00,7.8,-3.0,30.19,SSW,205,7.0,10.0,62,0.00,,,0.00,weatherlink.com 1.10,2014-01-29 11:16:00,
2014-01-29 05:31:00,7.9,-3.0,30.19,SSW,207,7.0,10.0,62,0.00,,,0.00,weatherlink.com 1.10,2014-01-29 11:31:00,
2014-01-29 05:46:00,7.8,-2.0,30.18,SW,225,7.0,10.0,64,0.00,,,0.00,weatherlink.com 1.10,2014-01-29 11:46:00,
2014-01-29 06:01:00,7.7,-2.0,30.18,SSW,200,7.0,11.0,64,0.00,,,0.00,weatherlink.com 1.10,2014-01-29 12:01:00,
2014-01-29 06:16:00,7.7,-2.0,30.17,SSW,194,7.0,11.0,65,0.00,,,0.00,weatherlink.com 1.10,2014-01-29 12:16:00,
2014-01-29 06:31:00,7.8,-2.0,30.17,SSW,206,7.0,12.0,64,0.00,,,0.00,weatherlink.com 1.10,2014-01-29 12:31:00,
2014-01-29 06:46:00,7.7,-2.0,30.17,SW,222,7.0,11.0,65,0.00,,,0.00,weatherlink.com 1.10,2014-01-29 12:46:00,
2014-01-29 07:01:00,7.8,-1.0,30.16,SSW,207,6.0,11.0,66,0.00,,,0.00,weatherlink.com 1.10,2014-01-29 13:01:00,
2014-01-29 07:16:00,8.0,-2.0,30.16,SSW,211,10.0,10.0,65,0.00,,,0.00,weatherlink.com 1.10,2014-01-29 13:16:00,
2014-01-29 07:31:00,8.1,-1.0,30.16,SSW,210,4.0,10.0,66,0.00,,,0.00,weatherlink.com 1.10,2014-01-29 13:31:00,
2014-01-29 07:46:00,7.8,-1.0,30.15,SSE,167,4.0,13.0,66,0.00,,,0.00,weatherlink.com 1.10,2014-01-29 13:46:00,
2014-01-29 08:02:00,7.8,-1.0,30.14,South,182,5.0,11.0,66,0.00,,,0.00,weatherlink.com 1.10,2014-01-29 14:02:00,
2014-01-29 08:17:00,7.6,-1.0,30.14,SSW,211,4.0,12.0,67,0.00,,,0.00,weatherlink.com 1.10,2014-01-29 14:17:00,
2014-01-29 08:32:00,8.0,-1.0,30.14,SSW,207,10.0,12.0,67,0.00,,,0.00,weatherlink.com 1.10,2014-01-29 14:32:00,
2014-01-29 08:47:00,8.5,0.0,30.14,SSW,209,9.0,15.0,68,0.00,,,0.00,weatherlink.com 1.10,2014-01-29 14:47:00,
2014-01-29 09:02:00,10.4,1.0,30.13,South,180,6.0,16.0,66,0.00,,,0.00,weatherlink.com 1.10,2014-01-29 15:02:00,
2014-01-29 09:17:00,12.2,2.0,30.13,SSW,207,14.0,16.0,65,0.00,,,0.00,weatherlink.com 1.10,2014-01-29 15:17:00,
2014-01-29 09:47:00,15.5,4.0,30.13,SW,220,12.0,18.0,60,0.00,,,0.00,weatherlink.com 1.10,2014-01-29 15:47:00,
2014-01-29 10:02:00,17.2,5.0,30.12,SSW,193,1.0,17.0,59,0.00,,,0.00,weatherlink.com 1.10,2014-01-29 16:02:00,
2014-01-29 10:17:00,19.0,5.0,30.12,SW,219,11.0,14.0,55,0.00,,,0.00,weatherlink.com 1.10,2014-01-29 16:17:00,
2014-01-29 10:32:00,20.6,6.0,30.11,SW,216,10.0,16.0,54,0.00,,,0.00,weatherlink.com 1.10,2014-01-29 16:32:00,
2014-01-29 10:47:00,22.1,7.0,30.11,SW,215,11.0,20.0,52,0.00,,,0.00,weatherlink.com 1.10,2014-01-29 16:47:00,
2014-01-29 11:02:00,23.2,7.0,30.10,South,191,18.0,22.0,51,0.00,,,0.00,weatherlink.com 1.10,2014-01-29 17:02:00,
2014-01-29 11:18:00,25.1,9.0,30.09,SSW,194,7.0,18.0,50,0.00,,,0.00,weatherlink.com 1.10,2014-01-29 17:18:00,
2014-01-29 11:33:00,27.6,10.0,30.08,South,186,10.0,17.0,47,0.00,,,0.00,weatherlink.com 1.10,2014-01-29 17:33:00,
2014-01-29 11:48:00,29.7,11.0,30.07,South,177,9.0,24.0,45,0.00,,,0.00,weatherlink.com 1.10,2014-01-29 17:48:00,
2014-01-29 12:03:00,31.2,11.0,30.05,South,182,9.0,22.0,43,0.00,,,0.00,weatherlink.com 1.10,2014-01-29 18:03:00,
2014-01-29 12:18:00,33.0,12.0,30.03,South,190,18.0,21.0,42,0.00,,,0.00,weatherlink.com 1.10,2014-01-29 18:18:00,
2014-01-29 12:33:00,34.6,12.0,30.01,SSW,203,17.0,21.0,40,0.00,,,0.00,weatherlink.com 1.10,2014-01-29 18:33:00,
2014-01-29 12:48:00,35.7,13.0,30.00,South,182,12.0,26.0,39,0.00,,,0.00,weatherlink.com 1.10,2014-01-29 18:48:00,
2014-01-29 13:03:00,37.5,13.0,29.98,South,185,22.0,25.0,37,0.00,,,0.00,weatherlink.com 1.10,2014-01-29 19:03:00,
2014-01-29 13:18:00,38.5,14.0,29.97,SSW,203,16.0,25.0,36,0.00,,,0.00,weatherlink.com 1.10,2014-01-29 19:18:00,
2014-01-29 13:33:00,39.9,13.0,29.95,South,183,10.0,24.0,34,0.00,,,0.00,weatherlink.com 1.10,2014-01-29 19:33:00,
2014-01-29 13:48:00,40.7,14.0,29.93,SW,216,8.0,24.0,33,0.00,,,0.00,weatherlink.com 1.10,2014-01-29 19:48:00,
2014-01-29 14:03:00,41.3,13.0,29.92,SW,225,15.0,27.0,31,0.00,,,0.00,weatherlink.com 1.10,2014-01-29 20:03:00,
2014-01-29 14:18:00,41.9,13.0,29.91,South,175,17.0,30.0,31,0.00,,,0.00,weatherlink.com 1.10,2014-01-29 20:18:00,
2014-01-29 14:33:00,42.5,13.0,29.90,South,178,20.0,27.0,30,0.00,,,0.00,weatherlink.com 1.10,2014-01-29 20:33:00,
2014-01-29 14:49:00,43.2,13.0,29.89,SW,219,18.0,30.0,29,0.00,,,0.00,weatherlink.com 1.10,2014-01-29 20:49:00,
2014-01-29 15:04:00,43.9,13.0,29.88,SSW,202,12.0,31.0,28,0.00,,,0.00,weatherlink.com 1.10,2014-01-29 21:04:00,
2014-01-29 15:19:00,44.1,13.0,29.87,SSW,194,12.0,29.0,28,0.00,,,0.00,weatherlink.com 1.10,2014-01-29 21:19:00,
2014-01-29 15:34:00,44.2,12.0,29.86,SW,214,13.0,26.0,27,0.00,,,0.00,weatherlink.com 1.10,2014-01-29 21:34:00,
2014-01-29 15:49:00,44.4,12.0,29.85,SSW,193,14.0,25.0,27,0.00,,,0.00,weatherlink.com 1.10,2014-01-29 21:49:00,
2014-01-29 16:04:00,44.3,12.0,29.85,SSW,206,18.0,29.0,27,0.00,,,0.00,weatherlink.com 1.10,2014-01-29 22:04:00,
2014-01-29 16:19:00,44.4,13.0,29.84,South,174,6.0,24.0,28,0.00,,,0.00,weatherlink.com 1.10,2014-01-29 22:19:00,
2014-01-29 16:34:00,44.3,13.0,29.84,SSW,199,17.0,21.0,28,0.00,,,0.00,weatherlink.com 1.10,2014-01-29 22:34:00,
2014-01-29 16:49:00,44.1,13.0,29.84,SSE,148,9.0,30.0,28,0.00,,,0.00,weatherlink.com 1.10,2014-01-29 22:49:00,
2014-01-29 17:04:00,43.5,13.0,29.84,South,178,7.0,17.0,29,0.00,,,0.00,weatherlink.com 1.10,2014-01-29 23:04:00,
2014-01-29 17:19:00,42.8,13.0,29.82,South,175,6.0,20.0,30,0.00,,,0.00,weatherlink.com 1.10,2014-01-29 23:19:00,
2014-01-29 17:34:00,41.8,13.0,29.81,South,175,13.0,20.0,31,0.00,,,0.00,weatherlink.com 1.10,2014-01-29 23:34:00,
2014-01-29 17:49:00,41.1,14.0,29.81,South,171,9.0,18.0,33,0.00,,,0.00,weatherlink.com 1.10,2014-01-29 23:49:00,
2014-01-29 18:04:00,40.8,14.0,29.80,SSE,163,13.0,20.0,33,0.00,,,0.00,weatherlink.com 1.10,2014-01-30 00:04:00,
2014-01-29 18:19:00,40.7,14.0,29.79,SSW,198,15.0,19.0,33,0.00,,,0.00,weatherlink.com 1.10,2014-01-30 00:19:00,
2014-01-29 18:34:00,40.3,13.0,29.79,SSW,202,13.0,18.0,33,0.00,,,0.00,weatherlink.com 1.10,2014-01-30 00:34:00,
2014-01-29 18:49:00,39.9,13.0,29.78,South,187,16.0,20.0,34,0.00,,,0.00,weatherlink.com 1.10,2014-01-30 00:49:00,
2014-01-29 19:04:00,39.6,13.0,29.77,SSE,166,11.0,20.0,34,0.00,,,0.00,weatherlink.com 1.10,2014-01-30 01:04:00,
2014-01-29 19:19:00,39.3,13.0,29.76,SSW,196,10.0,20.0,34,0.00,,,0.00,weatherlink.com 1.10,2014-01-30 01:19:00,
2014-01-29 19:35:00,39.5,13.0,29.75,SSW,202,21.0,26.0,34,0.00,,,0.00,weatherlink.com 1.10,2014-01-30 01:35:00,
2014-01-29 19:50:00,39.4,13.0,29.75,South,189,23.0,23.0,34,0.00,,,0.00,weatherlink.com 1.10,2014-01-30 01:50:00,
2014-01-29 20:05:00,39.1,13.0,29.75,SSW,192,10.0,25.0,34,0.00,,,0.00,weatherlink.com 1.10,2014-01-30 02:05:00,
2014-01-29 20:20:00,38.8,13.0,29.74,SSW,192,21.0,23.0,35,0.00,,,0.00,weatherlink.com 1.10,2014-01-30 02:20:00,
2014-01-29 20:35:00,38.5,13.0,29.72,SSW,207,9.0,24.0,35,0.00,,,0.00,weatherlink.com 1.10,2014-01-30 02:35:00,
2014-01-29 20:50:00,38.1,13.0,29.71,South,187,16.0,23.0,36,0.00,,,0.00,weatherlink.com 1.10,2014-01-30 02:50:00,
2014-01-29 21:05:00,37.8,13.0,29.71,South,178,10.0,21.0,37,0.00,,,0.00,weatherlink.com 1.10,2014-01-30 03:05:00,
2014-01-29 21:20:00,37.5,13.0,29.71,South,170,8.0,24.0,37,0.00,,,0.00,weatherlink.com 1.10,2014-01-30 03:20:00,
2014-01-29 21:35:00,37.3,14.0,29.70,South,169,13.0,22.0,38,0.00,,,0.00,weatherlink.com 1.10,2014-01-30 03:35:00,
2014-01-29 21:50:00,37.3,14.0,29.70,South,188,17.0,22.0,38,0.00,,,0.00,weatherlink.com 1.10,2014-01-30 03:50:00,
2014-01-29 22:05:00,37.3,14.0,29.69,SSW,193,10.0,23.0,38,0.00,,,0.00,weatherlink.com 1.10,2014-01-30 04:05:00,
2014-01-29 22:20:00,37.4,14.0,29.68,South,175,15.0,21.0,38,0.00,,,0.00,weatherlink.com 1.10,2014-01-30 04:20:00,
2014-01-29 22:35:00,37.0,14.0,29.67,SSW,198,13.0,24.0,39,0.00,,,0.00,weatherlink.com 1.10,2014-01-30 04:35:00,
2014-01-29 22:50:00,36.9,14.0,29.66,South,184,22.0,25.0,39,0.00,,,0.00,weatherlink.com 1.10,2014-01-30 04:50:00,
2014-01-29 23:06:00,36.9,14.0,29.65,SSW,195,16.0,28.0,39,0.00,,,0.00,weatherlink.com 1.10,2014-01-30 05:06:00,
2014-01-29 23:21:00,37.1,13.0,29.64,South,176,18.0,24.0,38,0.00,,,0.00,weatherlink.com 1.10,2014-01-30 05:21:00,
2014-01-29 23:36:00,37.6,13.0,29.63,South,190,10.0,29.0,37,0.00,,,0.00,weatherlink.com 1.10,2014-01-30 05:36:00,
2014-01-29 23:51:00,38.1,13.0,29.61,SSE,164,9.0,28.0,35,0.00,,,0.00,weatherlink.com 1.10,2014-01-30 05:51:00,